createdAt,value
2019-02-03T00:00:00.920Z,91.8
2019-02-03T00:01:01.437Z,91.8
2019-02-03T00:02:01.477Z,91.7
2019-02-03T00:03:01.415Z,91.8
2019-02-03T00:04:01.391Z,91.7
2019-02-03T00:05:01.311Z,91.8
2019-02-03T00:06:01.257Z,92
2019-02-03T00:07:04.257Z,91.9
2019-02-03T00:08:04.175Z,91.9
2019-02-03T00:09:04.252Z,91.8
2019-02-03T00:10:04.218Z,91.9
2019-02-03T00:11:05.419Z,91.8
2019-02-03T00:12:06.186Z,91.9
2019-02-03T00:13:06.111Z,91.8
2019-02-03T00:14:06.103Z,91.8
2019-02-03T00:15:06.043Z,91.8
2019-02-03T00:16:06.217Z,91.9
2019-02-03T00:17:06.315Z,92
2019-02-03T00:18:06.263Z,92
2019-02-03T00:19:06.186Z,92.1
2019-02-03T00:20:06.161Z,92
2019-02-03T00:21:06.568Z,92
2019-02-03T00:22:06.516Z,92.1
2019-02-03T00:23:06.453Z,92.1
2019-02-03T00:24:06.370Z,92
2019-02-03T00:25:06.303Z,91.6
2019-02-03T00:30:06.299Z,90.8
2019-02-03T00:31:06.770Z,90.6
2019-02-03T00:32:06.724Z,90.9
2019-02-03T00:33:06.655Z,91
2019-02-03T00:34:06.606Z,91.2
2019-02-03T00:35:06.556Z,91
2019-02-03T00:36:07.567Z,91
2019-02-03T00:37:18.985Z,91
2019-02-03T00:38:26.867Z,91.5
2019-02-03T00:39:27.106Z,91.2
2019-02-03T00:40:27.427Z,91.3
2019-02-03T00:41:28.381Z,91.3
2019-02-03T00:42:28.390Z,91.3
2019-02-03T00:43:28.333Z,91.3
2019-02-03T00:44:28.265Z,91.4
2019-02-03T00:45:28.184Z,91.4
2019-02-03T00:46:28.142Z,91.5
2019-02-03T00:47:30.165Z,91.5
2019-02-03T00:48:30.825Z,91.6
2019-02-03T00:49:30.768Z,91.9
2019-02-03T00:50:30.694Z,91.6
2019-02-03T00:51:31.120Z,91.7
2019-02-03T00:52:31.072Z,91.8
2019-02-03T00:53:31.012Z,91.7
2019-02-03T00:54:31.153Z,91.6
2019-02-03T00:55:31.424Z,91.7
2019-02-03T00:56:31.343Z,91.8
2019-02-03T00:57:33.148Z,91.8
2019-02-03T00:58:33.076Z,91.8
2019-02-03T00:59:33.007Z,91.9
2019-02-03T01:00:32.943Z,91.9
2019-02-03T01:01:33.325Z,91.9
2019-02-03T01:02:33.291Z,91.8
2019-02-03T01:03:33.218Z,91.9
2019-02-03T01:05:34.364Z,91.5
2019-02-03T01:06:34.291Z,91.4
2019-02-03T01:09:34.632Z,90.8
2019-02-03T01:11:34.910Z,90.4
2019-02-03T01:12:35.783Z,90.8
2019-02-03T01:13:36.124Z,90.9
2019-02-03T01:14:36.066Z,91
2019-02-03T01:15:36.003Z,91
2019-02-03T01:16:36.984Z,91.1
2019-02-03T01:17:36.907Z,91.1
2019-02-03T01:18:36.837Z,91.1
2019-02-03T01:19:36.905Z,91.2
2019-02-03T01:20:37.320Z,91.3
2019-02-03T01:21:37.722Z,91.2
2019-02-03T01:22:37.661Z,91.3
2019-02-03T01:23:40.227Z,91.4
2019-02-03T01:24:40.148Z,91.4
2019-02-03T01:25:40.158Z,91.4
2019-02-03T01:26:40.075Z,91.3
2019-02-03T01:27:40.002Z,91.4
2019-02-03T01:28:39.950Z,91.6
2019-02-03T01:29:40.730Z,91.6
2019-02-03T01:30:41.611Z,91.6
2019-02-03T01:31:41.995Z,91.7
2019-02-03T01:32:41.916Z,91.7
2019-02-03T01:33:41.856Z,91.7
2019-02-03T01:34:41.826Z,91.8
2019-02-03T01:35:41.740Z,91.8
2019-02-03T01:36:41.658Z,91.9
2019-02-03T01:37:43.154Z,91.9
2019-02-03T01:38:44.021Z,91.9
2019-02-03T01:39:43.962Z,91.9
2019-02-03T01:40:43.883Z,91.9
2019-02-03T01:41:44.306Z,91.9
2019-02-03T01:42:44.224Z,92
2019-02-03T01:43:44.193Z,92
2019-02-03T01:44:44.259Z,92
2019-02-03T01:45:44.198Z,91.4
2019-02-03T01:46:44.194Z,91.2
2019-02-03T01:49:46.549Z,90.9
2019-02-03T01:50:46.473Z,90.5
2019-02-03T01:51:46.846Z,90.5
2019-02-03T01:52:46.745Z,90.9
2019-02-03T01:53:46.666Z,91.1
2019-02-03T01:54:47.465Z,91
2019-02-03T01:55:48.366Z,91.1
2019-02-03T01:56:48.312Z,91.1
2019-02-03T01:57:48.255Z,91.1
2019-02-03T01:58:48.195Z,91.4
2019-02-03T01:59:48.279Z,91.3
2019-02-03T02:00:48.214Z,91.3
2019-02-03T02:01:48.615Z,91.2
2019-02-03T02:02:49.268Z,91.4
2019-02-03T02:03:49.194Z,91.5
2019-02-03T02:04:49.169Z,91.6
2019-02-03T02:05:49.109Z,91.6
2019-02-03T02:06:49.047Z,91.6
2019-02-03T02:07:52.764Z,91.6
2019-02-03T02:08:52.693Z,91.7
2019-02-03T02:09:55.560Z,91.7
2019-02-03T02:10:55.496Z,91.8
2019-02-03T02:11:56.542Z,91.8
2019-02-03T02:12:57.204Z,91.7
2019-02-03T02:13:57.148Z,91.9
2019-02-03T02:14:57.101Z,91.9
2019-02-03T02:15:57.024Z,91.9
2019-02-03T02:16:56.969Z,91.9
2019-02-03T02:17:57.138Z,91.9
2019-02-03T02:18:57.079Z,92.3
2019-02-03T02:19:57.652Z,92
2019-02-03T02:20:57.634Z,92
2019-02-03T02:21:58.028Z,92
2019-02-03T02:22:57.950Z,92
2019-02-03T02:23:57.875Z,92.1
2019-02-03T02:24:57.790Z,92.2
2019-02-03T02:25:57.822Z,92.2
2019-02-03T02:26:57.735Z,92.2
2019-02-03T02:27:57.693Z,92.2
2019-02-03T02:28:57.639Z,92.1
2019-02-03T02:29:57.560Z,92.1
2019-02-03T02:30:57.524Z,92
2019-02-03T02:31:58.012Z,92.2
2019-02-03T02:32:57.958Z,92.2
2019-02-03T02:33:57.896Z,92.3
2019-02-03T02:34:57.859Z,92.2
2019-02-03T02:35:58.051Z,92.3
2019-02-03T02:36:57.978Z,92.3
2019-02-03T02:38:08.325Z,92.3
2019-02-03T02:39:09.019Z,92.3
2019-02-03T02:40:14.137Z,92.4
2019-02-03T02:41:14.118Z,92.3
2019-02-03T02:42:14.548Z,92.4
2019-02-03T02:43:14.494Z,92.3
2019-02-03T02:44:14.538Z,92.4
2019-02-03T02:45:14.632Z,92.4
2019-02-03T02:46:14.910Z,92.4
2019-02-03T02:47:15.069Z,92.4
2019-02-03T02:48:14.995Z,92.4
2019-02-03T02:49:14.927Z,92.3
2019-02-03T02:50:14.857Z,92.4
2019-02-03T02:51:14.781Z,92.5
2019-02-03T02:52:15.997Z,92.5
2019-02-03T02:53:15.960Z,92.2
2019-02-03T02:54:15.910Z,92.2
2019-02-03T02:55:15.838Z,92.3
2019-02-03T02:56:15.782Z,92.4
2019-02-03T02:57:15.738Z,92.3
2019-02-03T02:58:15.653Z,92.4
2019-02-03T02:59:15.576Z,92.4
2019-02-03T03:00:18.347Z,92.4
2019-02-03T03:01:18.315Z,92.4
2019-02-03T03:02:18.724Z,92.5
2019-02-03T03:03:19.618Z,92.4
2019-02-03T03:04:20.218Z,92.4
2019-02-03T03:05:20.145Z,92.4
2019-02-03T03:06:20.084Z,92.4
2019-02-03T03:07:20.045Z,92.4
2019-02-03T03:08:20.580Z,92.4
2019-02-03T03:09:20.561Z,92.4
2019-02-03T03:10:20.674Z,92.4
2019-02-03T03:11:20.938Z,92.4
2019-02-03T03:12:21.327Z,92.4
2019-02-03T03:13:21.252Z,92.4
2019-02-03T03:14:21.186Z,92.4
2019-02-03T03:15:21.108Z,92.5
2019-02-03T03:16:21.028Z,92.5
2019-02-03T03:17:21.230Z,92.5
2019-02-03T03:18:21.200Z,92.5
2019-02-03T03:19:21.118Z,92.4
2019-02-03T03:20:21.051Z,92.5
2019-02-03T03:21:20.988Z,92.5
2019-02-03T03:22:21.402Z,92.5
2019-02-03T03:23:21.447Z,92.2
2019-02-03T03:24:21.393Z,92.4
2019-02-03T03:25:21.331Z,92.4
2019-02-03T03:26:21.272Z,92.5
2019-02-03T03:27:21.257Z,92.4
2019-02-03T03:28:21.248Z,92.8
2019-02-03T03:29:21.790Z,92.2
2019-02-03T03:30:21.792Z,92.4
2019-02-03T03:31:21.866Z,92.4
2019-02-03T03:32:23.048Z,92.2
2019-02-03T03:33:23.059Z,92.4
2019-02-03T03:34:23.006Z,92.3
2019-02-03T03:35:22.917Z,92.2
2019-02-03T03:36:23.906Z,92.2
2019-02-03T03:37:24.670Z,92.1
2019-02-03T03:38:33.152Z,92.2
2019-02-03T03:39:33.094Z,92.4
2019-02-03T03:40:33.045Z,92.5
2019-02-03T03:41:32.978Z,92.4
2019-02-03T03:42:34.610Z,92.4
2019-02-03T03:43:34.724Z,92.6
2019-02-03T03:44:34.658Z,92.6
2019-02-03T03:45:35.002Z,92.2
2019-02-03T03:46:34.943Z,92
2019-02-03T03:52:34.322Z,90.7
2019-02-03T03:53:34.290Z,91.1
2019-02-03T03:54:34.206Z,91.3
2019-02-03T03:55:34.133Z,91.3
2019-02-03T03:56:34.060Z,91.2
2019-02-03T03:57:33.990Z,91.3
2019-02-03T03:58:33.938Z,91.2
2019-02-03T03:59:33.840Z,91.4
2019-02-03T04:00:33.774Z,91.5
2019-02-03T04:01:33.733Z,91.6
2019-02-03T04:02:34.132Z,91.8
2019-02-03T04:03:34.476Z,91.8
2019-02-03T04:04:34.401Z,91.9
2019-02-03T04:05:34.319Z,91.9
2019-02-03T04:06:34.248Z,91.9
2019-02-03T04:07:34.178Z,92
2019-02-03T04:08:46.289Z,92
2019-02-03T04:09:46.263Z,92.1
2019-02-03T04:10:46.199Z,92.1
2019-02-03T04:11:46.995Z,92.1
2019-02-03T04:12:48.416Z,92.2
2019-02-03T04:13:48.407Z,92.2
2019-02-03T04:14:48.335Z,92.2
2019-02-03T04:15:48.248Z,92.2
2019-02-03T04:16:48.204Z,92.2
2019-02-03T04:17:48.236Z,92.2
2019-02-03T04:18:48.167Z,92.6
2019-02-03T04:19:48.609Z,92.3
2019-02-03T04:20:49.040Z,92.3
2019-02-03T04:21:48.967Z,92.4
2019-02-03T04:22:49.372Z,92.4
2019-02-03T04:23:49.385Z,92.4
2019-02-03T04:24:49.481Z,92.4
2019-02-03T04:25:49.430Z,92.4
2019-02-03T04:26:49.383Z,92.7
2019-02-03T04:27:49.799Z,92.4
2019-02-03T04:28:49.721Z,92.4
2019-02-03T04:29:49.633Z,92.5
2019-02-03T04:30:49.588Z,92.4
2019-02-03T04:31:49.711Z,92.5
2019-02-03T04:32:51.541Z,92.5
2019-02-03T04:33:51.471Z,92.5
2019-02-03T04:34:51.415Z,92.5
2019-02-03T04:35:51.515Z,92.4
2019-02-03T04:36:52.481Z,92
2019-02-03T04:37:53.408Z,92.2
2019-02-03T04:38:59.260Z,92.3
2019-02-03T04:39:59.182Z,92.3
2019-02-03T04:40:59.153Z,92.4
2019-02-03T04:41:59.071Z,92.3
2019-02-03T04:42:59.443Z,92.4
2019-02-03T04:43:59.399Z,92.4
2019-02-03T04:44:59.381Z,92.5
2019-02-03T04:46:00.275Z,92.5
2019-02-03T04:47:00.856Z,92.6
2019-02-03T04:48:00.814Z,92.7
2019-02-03T04:49:00.850Z,92.7
2019-02-03T04:50:00.975Z,92.7
2019-02-03T04:51:00.929Z,92.6
2019-02-03T04:52:00.862Z,92.7
2019-02-03T04:53:01.274Z,93
2019-02-03T04:54:02.121Z,92.7
2019-02-03T04:55:02.613Z,92.6
2019-02-03T04:56:02.550Z,92.5
2019-02-03T04:57:02.503Z,92.5
2019-02-03T04:58:02.570Z,92.6
2019-02-03T04:59:02.525Z,92.5
2019-02-03T05:00:02.456Z,92.4
2019-02-03T05:01:02.399Z,92.6
2019-02-03T05:02:03.163Z,92.6
2019-02-03T05:03:04.511Z,92.7
2019-02-03T05:04:04.443Z,92.7
2019-02-03T05:05:04.363Z,92.7
2019-02-03T05:06:04.305Z,92.8
2019-02-03T05:07:04.257Z,92.7
2019-02-03T05:08:04.167Z,92.6
2019-02-03T05:09:12.073Z,92.6
2019-02-03T05:10:12.231Z,92.8
2019-02-03T05:11:12.245Z,92.8
2019-02-03T05:12:12.235Z,92.8
2019-02-03T05:13:12.759Z,92.8
2019-02-03T05:14:12.711Z,92.7
2019-02-03T05:15:12.659Z,92.8
2019-02-03T05:16:12.599Z,92.8
2019-02-03T05:17:12.546Z,92.8
2019-02-03T05:18:12.480Z,92.6
2019-02-03T05:19:12.454Z,92.6
2019-02-03T05:20:12.420Z,92.7
2019-02-03T05:21:12.530Z,92.6
2019-02-03T05:22:12.519Z,92.6
2019-02-03T05:23:12.954Z,92.6
2019-02-03T05:24:12.891Z,92.8
2019-02-03T05:25:12.955Z,92.8
2019-02-03T05:26:12.895Z,92.3
2019-02-03T05:29:12.398Z,91.7
2019-02-03T05:33:12.083Z,91.1
2019-02-03T05:34:12.019Z,91.3
2019-02-03T05:35:12.293Z,91.4
2019-02-03T05:36:12.239Z,91.4
2019-02-03T05:37:12.186Z,91.3
2019-02-03T05:38:12.211Z,91.3
2019-02-03T05:39:26.142Z,91.5
2019-02-03T05:40:26.110Z,91.5
2019-02-03T05:41:26.073Z,91.3
2019-02-03T05:42:26.019Z,91.4
2019-02-03T05:43:26.692Z,91.6
2019-02-03T05:44:26.625Z,91.6
2019-02-03T05:45:27.436Z,91.7
2019-02-03T05:46:27.626Z,91.7
2019-02-03T05:47:27.565Z,91.4
2019-02-03T05:49:27.265Z,91.2
2019-02-03T05:51:26.949Z,91
2019-02-03T05:53:27.400Z,90.8
2019-02-03T05:54:27.328Z,91
2019-02-03T05:55:27.253Z,90.9
2019-02-03T05:56:27.193Z,91.3
2019-02-03T05:57:27.117Z,91.3
2019-02-03T05:58:27.056Z,91.3
2019-02-03T05:59:27.005Z,91.3
2019-02-03T06:00:26.933Z,91.4
2019-02-03T06:01:26.969Z,91.5
2019-02-03T06:02:26.919Z,91.6
2019-02-03T06:03:27.519Z,91.7
2019-02-03T06:04:27.447Z,91.7
2019-02-03T06:05:27.370Z,91.8
2019-02-03T06:06:27.319Z,91.8
2019-02-03T06:07:27.232Z,91.8
2019-02-03T06:08:27.183Z,92.1
2019-02-03T06:09:37.588Z,91.9
2019-02-03T06:10:37.556Z,92
2019-02-03T06:11:38.372Z,92
2019-02-03T06:12:39.240Z,92.2
2019-02-03T06:13:39.702Z,92.1
2019-02-03T06:14:39.641Z,92.2
2019-02-03T06:15:39.588Z,92.3
2019-02-03T06:16:39.549Z,92.2
2019-02-03T06:17:39.489Z,92.4
2019-02-03T06:18:39.432Z,92.4
2019-02-03T06:19:40.230Z,92.4
2019-02-03T06:20:41.038Z,92.3
2019-02-03T06:21:40.948Z,92.5
2019-02-03T06:22:40.865Z,92.5
2019-02-03T06:23:41.318Z,92.6
2019-02-03T06:24:41.344Z,92.6
2019-02-03T06:25:41.279Z,92.6
2019-02-03T06:26:41.219Z,92.6
2019-02-03T06:27:41.939Z,92.6
2019-02-03T06:28:41.930Z,92.6
2019-02-03T06:29:41.868Z,92.6
2019-02-03T06:30:41.918Z,92.4
2019-02-03T06:31:41.825Z,92.6
2019-02-03T06:32:41.736Z,92.5
2019-02-03T06:33:42.301Z,92.7
2019-02-03T06:34:42.250Z,92.6
2019-02-03T06:35:42.184Z,92.5
2019-02-03T06:36:42.122Z,92.6
2019-02-03T06:37:42.234Z,92.7
2019-02-03T06:38:42.182Z,92.7
2019-02-03T06:39:49.546Z,92.7
2019-02-03T06:40:49.500Z,92.7
2019-02-03T06:41:49.453Z,92.8
2019-02-03T06:42:49.355Z,92.8
2019-02-03T06:43:49.791Z,93
2019-02-03T06:44:49.773Z,93.2
2019-02-03T06:45:50.632Z,92.8
2019-02-03T06:46:51.319Z,92.8
2019-02-03T06:47:51.256Z,92.8
2019-02-03T06:48:51.226Z,92.7
2019-02-03T06:49:51.273Z,92.8
2019-02-03T06:50:51.196Z,92.8
2019-02-03T06:51:51.119Z,92.7
2019-02-03T06:52:51.056Z,92.9
2019-02-03T06:53:52.389Z,92.9
2019-02-03T06:54:53.029Z,92.8
2019-02-03T06:55:52.952Z,92.5
2019-02-03T06:57:52.668Z,92.2
2019-02-03T06:59:52.387Z,91.8
2019-02-03T07:01:52.916Z,91.4
2019-02-03T07:03:53.880Z,91.1
2019-02-03T07:05:53.674Z,90.8
2019-02-03T07:06:53.640Z,90.8
2019-02-03T07:08:53.328Z,90.8
2019-02-03T07:10:01.673Z,90.8
2019-02-03T07:11:02.256Z,90.7
2019-02-03T07:12:02.877Z,90.7
2019-02-03T07:13:02.825Z,90.6
2019-02-03T07:14:03.230Z,90.6
2019-02-03T07:15:03.168Z,90.9
2019-02-03T07:16:03.100Z,91
2019-02-03T07:17:03.020Z,91.1
2019-02-03T07:18:02.960Z,91.1
2019-02-03T07:19:03.678Z,91.2
2019-02-03T07:20:04.050Z,91.2
2019-02-03T07:21:03.983Z,91.3
2019-02-03T07:22:03.916Z,91.3
2019-02-03T07:23:03.854Z,91.3
2019-02-03T07:24:05.322Z,91.4
2019-02-03T07:25:05.278Z,91.5
2019-02-03T07:26:05.190Z,91.6
2019-02-03T07:27:05.104Z,91.6
2019-02-03T07:28:05.038Z,91.7
2019-02-03T07:29:05.943Z,91.8
2019-02-03T07:30:05.888Z,91.8
2019-02-03T07:31:05.856Z,91.8
2019-02-03T07:32:05.769Z,91.9
2019-02-03T07:33:05.722Z,91.9
2019-02-03T07:34:06.138Z,92
2019-02-03T07:35:06.079Z,92
2019-02-03T07:36:07.943Z,92.1
2019-02-03T07:37:08.597Z,91.9
2019-02-03T07:38:11.365Z,91.9
2019-02-03T07:39:11.319Z,92.1
2019-02-03T07:40:13.472Z,92.1
2019-02-03T07:41:13.441Z,92
2019-02-03T07:42:13.372Z,92.2
2019-02-03T07:43:13.298Z,92.2
2019-02-03T07:44:13.683Z,92.2
2019-02-03T07:45:14.762Z,92.3
2019-02-03T07:46:15.688Z,92.3
2019-02-03T07:47:15.627Z,91.9
2019-02-03T07:48:15.703Z,91.9
2019-02-03T07:51:15.180Z,91.6
2019-02-03T07:52:15.133Z,91.6
2019-02-03T07:54:17.015Z,91.2
2019-02-03T07:55:16.965Z,91.5
2019-02-03T07:56:16.928Z,91.6
2019-02-03T07:57:17.928Z,91.6
2019-02-03T07:58:17.985Z,91.6
2019-02-03T07:59:18.153Z,91.6
2019-02-03T08:00:18.060Z,91.7
2019-02-03T08:01:18.581Z,91.8
2019-02-03T08:02:19.135Z,91.8
2019-02-03T08:03:19.106Z,92.2
2019-02-03T08:04:19.504Z,91.9
2019-02-03T08:05:19.459Z,91.8
2019-02-03T08:06:19.528Z,92
2019-02-03T08:07:19.527Z,92
2019-02-03T08:08:19.469Z,91.9
2019-02-03T08:09:20.122Z,92.1
2019-02-03T08:10:30.250Z,92
2019-02-03T08:11:30.213Z,92.1
2019-02-03T08:12:30.155Z,92.3
2019-02-03T08:13:30.087Z,92.2
2019-02-03T08:14:30.487Z,92.2
2019-02-03T08:15:30.457Z,92.2
2019-02-03T08:16:30.419Z,92.2
2019-02-03T08:17:30.361Z,92.2
2019-02-03T08:18:30.284Z,92.3
2019-02-03T08:19:30.201Z,92.3
2019-02-03T08:20:30.173Z,92.4
2019-02-03T08:21:30.108Z,92.3
2019-02-03T08:22:30.087Z,92.2
2019-02-03T08:23:30.027Z,92.2
2019-02-03T08:24:30.447Z,92.2
2019-02-03T08:25:30.363Z,92.3
2019-02-03T08:26:30.481Z,92.3
2019-02-03T08:27:30.415Z,92.4
2019-02-03T08:28:30.320Z,92.2
2019-02-03T08:29:30.253Z,92.5
2019-02-03T08:30:30.201Z,92.5
2019-02-03T08:31:30.235Z,92.5
2019-02-03T08:32:30.246Z,92.5
2019-02-03T08:33:30.169Z,92.6
2019-02-03T08:34:31.057Z,92.4
2019-02-03T08:35:31.077Z,92.4
2019-02-03T08:36:31.021Z,92.5
2019-02-03T08:37:30.979Z,92.2
2019-02-03T08:38:30.951Z,92
2019-02-03T08:39:30.915Z,91.8
2019-02-03T08:41:37.998Z,91.4
2019-02-03T08:44:39.139Z,91
2019-02-03T08:45:39.123Z,90.8
2019-02-03T08:46:39.059Z,90.8
2019-02-03T08:47:38.999Z,90.7
2019-02-03T08:48:38.925Z,90.6
2019-02-03T08:50:42.079Z,90.5
2019-02-03T08:51:42.005Z,90.4
2019-02-03T08:52:42.373Z,90.5
2019-02-03T08:53:43.341Z,90.5
2019-02-03T08:54:59.291Z,90.5
2019-02-03T08:56:00.249Z,90.8
2019-02-03T08:57:00.181Z,90.7
2019-02-03T08:58:00.129Z,90.8
2019-02-03T08:59:00.206Z,90.8
2019-02-03T09:00:00.417Z,90.9
2019-02-03T09:01:00.364Z,90.9
2019-02-03T09:02:00.283Z,90.9
2019-02-03T09:03:01.269Z,90.9
2019-02-03T09:04:02.258Z,91
2019-02-03T09:05:02.638Z,91
2019-02-03T09:06:02.586Z,91.2
2019-02-03T09:07:02.570Z,91.3
2019-02-03T09:08:02.509Z,91.4
2019-02-03T09:09:02.463Z,91.3
2019-02-03T09:10:02.369Z,91.3
2019-02-03T09:11:03.082Z,91.5
2019-02-03T09:12:03.546Z,91.6
2019-02-03T09:13:03.727Z,91.5
2019-02-03T09:14:03.706Z,91.6
2019-02-03T09:15:04.113Z,91.7
2019-02-03T09:16:04.077Z,91.7
2019-02-03T09:17:04.011Z,91.5
2019-02-03T09:18:03.935Z,91.7
2019-02-03T09:19:04.185Z,91.8
2019-02-03T09:20:04.151Z,91.8
2019-02-03T09:21:04.076Z,91.9
2019-02-03T09:22:04.031Z,92
2019-02-03T09:23:03.981Z,91.9
2019-02-03T09:24:03.933Z,91.8
2019-02-03T09:25:04.325Z,91.8
2019-02-03T09:26:04.269Z,91.9
2019-02-03T09:27:04.783Z,92
2019-02-03T09:28:04.817Z,91.9
2019-02-03T09:29:04.839Z,92
2019-02-03T09:30:04.781Z,91.9
2019-02-03T09:31:04.696Z,92
2019-02-03T09:32:04.703Z,91.8
2019-02-03T09:33:04.667Z,92
2019-02-03T09:34:04.921Z,91.9
2019-02-03T09:35:05.580Z,91.8
2019-02-03T09:36:05.540Z,91.9
2019-02-03T09:37:05.570Z,91.9
2019-02-03T09:38:05.656Z,91.9
2019-02-03T09:39:05.577Z,91.8
2019-02-03T09:40:05.513Z,91.9
2019-02-03T09:41:05.522Z,91.8
2019-02-03T09:42:05.460Z,91.9
2019-02-03T09:43:08.458Z,91.9
2019-02-03T09:44:09.325Z,91.9
2019-02-03T09:45:11.053Z,91.9
2019-02-03T09:46:11.018Z,92
2019-02-03T09:47:11.186Z,91.9
2019-02-03T09:48:11.145Z,92
2019-02-03T09:49:11.085Z,91.9
2019-02-03T09:50:11.148Z,91.9
2019-02-03T09:51:11.121Z,91.9
2019-02-03T09:52:11.891Z,91.9
2019-02-03T09:53:12.585Z,91.8
2019-02-03T09:54:12.527Z,91.8
2019-02-03T09:55:12.959Z,91.9
2019-02-03T09:56:13.015Z,91.8
2019-02-03T09:57:13.147Z,91.4
2019-02-03T09:58:13.488Z,91.5
2019-02-03T09:59:13.547Z,91.4
2019-02-03T10:00:14.399Z,91
2019-02-03T10:01:15.105Z,90.8
2019-02-03T10:02:15.207Z,90.7
2019-02-03T10:05:16.925Z,90.1
2019-02-03T10:06:17.064Z,90.6
2019-02-03T10:07:17.265Z,90.6
2019-02-03T10:08:20.488Z,90.3
2019-02-03T10:09:21.363Z,90.4
2019-02-03T10:10:22.242Z,90.4
2019-02-03T10:11:23.795Z,90.6
2019-02-03T10:12:23.913Z,90.6
2019-02-03T10:13:24.081Z,90.8
2019-02-03T10:14:24.348Z,90.6
2019-02-03T10:15:25.073Z,90.7
2019-02-03T10:16:25.301Z,91
2019-02-03T10:17:25.659Z,90.9
2019-02-03T10:18:26.447Z,90.9
2019-02-03T10:19:27.379Z,90.9
2019-02-03T10:20:27.593Z,91
2019-02-03T10:21:27.751Z,91.2
2019-02-03T10:22:27.881Z,91.3
2019-02-03T10:23:28.017Z,91.4
2019-02-03T10:24:28.177Z,91.5
2019-02-03T10:25:28.860Z,91.4
2019-02-03T10:26:29.858Z,91.4
2019-02-03T10:27:30.570Z,91.1
2019-02-03T10:28:30.978Z,91.3
2019-02-03T10:29:31.097Z,91
2019-02-03T10:30:31.244Z,90.7
2019-02-03T10:31:31.391Z,90.4
2019-02-03T10:32:31.526Z,90.4
2019-02-03T10:34:31.566Z,90
2019-02-03T10:35:32.384Z,89.8
2019-02-03T10:36:32.693Z,89.6
2019-02-03T10:37:32.653Z,89.5
2019-02-03T10:38:32.589Z,89.7
2019-02-03T10:39:33.826Z,89.5
2019-02-03T10:40:33.752Z,89.1
2019-02-03T10:41:33.739Z,88.6
2019-02-03T10:42:33.938Z,88.8
2019-02-03T10:43:34.895Z,88.7
2019-02-03T10:44:35.857Z,88.7
2019-02-03T10:45:36.281Z,88.9
2019-02-03T10:46:36.265Z,88.6
2019-02-03T10:47:36.442Z,88.6
2019-02-03T10:48:36.383Z,88.6
2019-02-03T10:49:36.322Z,88.6
2019-02-03T10:50:36.932Z,88.5
2019-02-03T10:51:36.914Z,88.4
2019-02-03T10:52:37.095Z,88.6
2019-02-03T10:53:37.050Z,88.7
2019-02-03T10:54:37.000Z,88.9
2019-02-03T10:55:39.580Z,89
2019-02-03T10:56:39.614Z,89.8
2019-02-03T10:57:39.603Z,90
2019-02-03T10:58:39.597Z,90
2019-02-03T10:59:40.121Z,89.8
2019-02-03T11:00:41.048Z,89.4
2019-02-03T11:01:41.031Z,89.8
2019-02-03T11:02:40.989Z,90.2
2019-02-03T11:03:50.213Z,90.2
2019-02-03T11:04:53.155Z,90.1
2019-02-03T11:05:54.967Z,90.3
2019-02-03T11:06:55.977Z,90
2019-02-03T11:07:55.949Z,90.1
2019-02-03T11:08:56.350Z,90
2019-02-03T11:09:56.876Z,90
2019-02-03T11:10:56.863Z,90.2
2019-02-03T11:11:56.876Z,90.1
2019-02-03T11:12:56.859Z,90
2019-02-03T11:14:56.609Z,89.6
2019-02-03T11:15:57.121Z,89.6
2019-02-03T11:17:00.522Z,90.1
2019-02-03T11:18:01.087Z,90.1
2019-02-03T11:19:01.069Z,90
2019-02-03T11:20:01.053Z,89.9
2019-02-03T11:21:01.093Z,89.4
2019-02-03T11:22:05.275Z,90.1
2019-02-03T11:23:05.303Z,90
2019-02-03T11:24:05.317Z,90.2
2019-02-03T11:25:06.124Z,90.4
2019-02-03T11:26:06.693Z,90.8
2019-02-03T11:27:06.740Z,90.9
2019-02-03T11:28:06.784Z,90.9
2019-02-03T11:29:06.889Z,91.2
2019-02-03T11:30:06.868Z,91.4
2019-02-03T11:31:06.872Z,91.3
2019-02-03T11:32:06.917Z,91.2
2019-02-03T11:33:10.702Z,91.3
2019-02-03T11:34:10.724Z,91.2
2019-02-03T11:35:10.725Z,91.2
2019-02-03T11:36:11.400Z,91.4
2019-02-03T11:37:11.405Z,91.4
2019-02-03T11:38:11.411Z,91.6
2019-02-03T11:39:11.423Z,91.2
2019-02-03T11:41:12.086Z,90.8
2019-02-03T11:43:12.265Z,90.2
2019-02-03T11:45:12.007Z,90.1
2019-02-03T11:46:13.750Z,89.6
2019-02-03T11:47:13.720Z,90
2019-02-03T11:48:13.947Z,90.1
2019-02-03T11:49:14.292Z,90.3
2019-02-03T11:50:14.244Z,90.3
2019-02-03T11:51:14.209Z,90.3
2019-02-03T11:52:14.190Z,90.1
2019-02-03T11:53:14.163Z,89.8
2019-02-03T11:54:14.132Z,90.3
2019-02-03T11:55:14.190Z,90.5
2019-02-03T11:56:14.923Z,90
2019-02-03T11:57:14.854Z,90.4
2019-02-03T11:58:14.789Z,90.6
2019-02-03T11:59:14.763Z,90.6
2019-02-03T12:00:14.944Z,90.4
2019-02-03T12:01:17.316Z,90.3
2019-02-03T12:02:17.281Z,90.5
2019-02-03T12:03:17.218Z,90.3
2019-02-03T12:04:17.191Z,90.2
2019-02-03T12:05:19.942Z,90.4
2019-02-03T12:06:20.526Z,90.7
2019-02-03T12:07:20.445Z,90.5
2019-02-03T12:08:20.731Z,90.6
2019-02-03T12:09:20.723Z,90.6
2019-02-03T12:10:20.880Z,90.8
2019-02-03T12:11:20.826Z,90.9
2019-02-03T12:12:20.761Z,90.7
2019-02-03T12:13:20.689Z,90.7
2019-02-03T12:14:20.612Z,91
2019-02-03T12:15:21.598Z,91.4
2019-02-03T12:16:22.976Z,91.7
2019-02-03T12:17:23.966Z,91.8
2019-02-03T12:18:23.906Z,92
2019-02-03T12:19:23.839Z,91.5
2019-02-03T12:20:23.812Z,91.6
2019-02-03T12:21:23.755Z,91.6
2019-02-03T12:22:23.720Z,92
2019-02-03T12:23:24.324Z,91.9
2019-02-03T12:24:24.856Z,92.2
2019-02-03T12:25:25.081Z,92.2
2019-02-03T12:26:25.586Z,92.4
2019-02-03T12:27:25.593Z,92.3
2019-02-03T12:28:25.517Z,91.9
2019-02-03T12:29:28.489Z,91.4
2019-02-03T12:30:28.832Z,91.3
2019-02-03T12:31:29.524Z,91.6
2019-02-03T12:32:30.464Z,91.6
2019-02-03T12:33:31.192Z,91.8
2019-02-03T12:34:31.122Z,91.9
2019-02-03T12:35:31.081Z,91.5
2019-02-03T12:36:31.762Z,91.5
2019-02-03T12:37:31.733Z,91.1
2019-02-03T12:38:31.804Z,91.9
2019-02-03T12:39:31.762Z,91.4
2019-02-03T12:40:31.766Z,91.2
2019-02-03T12:41:32.670Z,91.1
2019-02-03T12:42:33.422Z,91.5
2019-02-03T12:43:33.614Z,91.6
2019-02-03T12:44:33.530Z,91.3
2019-02-03T12:45:33.490Z,91.6
2019-02-03T12:46:34.173Z,92
2019-02-03T12:47:34.100Z,91.7
2019-02-03T12:48:34.051Z,91.7
2019-02-03T12:49:34.920Z,91.9
2019-02-03T12:50:35.891Z,91.7
2019-02-03T12:51:35.914Z,92
2019-02-03T12:52:35.902Z,91.9
2019-02-03T12:53:35.852Z,91.8
2019-02-03T12:54:35.754Z,91.6
2019-02-03T12:55:35.696Z,91.7
2019-02-03T12:56:36.146Z,91.6
2019-02-03T12:57:36.967Z,91.7
2019-02-03T12:58:37.794Z,91.9
2019-02-03T12:59:37.738Z,91.8
2019-02-03T13:00:37.672Z,91.6
2019-02-03T13:01:37.637Z,91.9
2019-02-03T13:02:37.582Z,92
2019-02-03T13:03:37.633Z,92.1
2019-02-03T13:04:37.592Z,91.9
2019-02-03T13:05:38.392Z,91.8
2019-02-03T13:06:39.698Z,91.8
2019-02-03T13:07:39.617Z,91.8
2019-02-03T13:08:39.826Z,91.7
2019-02-03T13:09:39.797Z,91.5
2019-02-03T13:10:39.958Z,91.5
2019-02-03T13:11:39.928Z,91.5
2019-02-03T13:12:39.876Z,91.6
2019-02-03T13:13:39.810Z,91.6
2019-02-03T13:14:40.334Z,91.7
2019-02-03T13:15:41.448Z,91.6
2019-02-03T13:16:41.921Z,91.3
2019-02-03T13:17:45.696Z,91.4
2019-02-03T13:18:45.658Z,91.2
2019-02-03T13:19:45.610Z,91.3
2019-02-03T13:20:45.550Z,91.4
2019-02-03T13:21:45.526Z,91.3
2019-02-03T13:22:45.466Z,91
2019-02-03T13:23:45.984Z,91.1
2019-02-03T13:24:45.918Z,91.2
2019-02-03T13:25:45.881Z,91.2
2019-02-03T13:26:47.072Z,91.1
2019-02-03T13:27:46.998Z,91.1
2019-02-03T13:28:46.943Z,91
2019-02-03T13:29:49.908Z,91
2019-02-03T13:30:49.953Z,90.9
2019-02-03T13:31:50.436Z,91.1
2019-02-03T13:32:50.676Z,90.9
2019-02-03T13:33:50.722Z,91
2019-02-03T13:34:53.877Z,91
2019-02-03T13:35:53.964Z,91.1
2019-02-03T13:36:54.619Z,91.1
2019-02-03T13:37:56.233Z,91
2019-02-03T13:38:56.910Z,90.7
2019-02-03T13:39:56.852Z,90.9
2019-02-03T13:40:57.325Z,90.9
2019-02-03T13:41:59.064Z,91.2
2019-02-03T13:42:59.879Z,90.9
2019-02-03T13:43:59.775Z,90.8
2019-02-03T13:45:06.137Z,90.6
2019-02-03T13:46:06.097Z,90.7
2019-02-03T13:47:07.483Z,90.7
2019-02-03T13:48:07.439Z,91
2019-02-03T13:49:07.365Z,90.6
2019-02-03T13:50:07.443Z,90.6
2019-02-03T13:51:08.410Z,91
2019-02-03T13:52:09.391Z,91.1
2019-02-03T13:53:09.310Z,90.8
2019-02-03T13:54:09.258Z,90.5
2019-02-03T13:55:09.523Z,90.8
2019-02-03T13:56:09.578Z,90.7
2019-02-03T13:57:10.061Z,90.6
2019-02-03T13:58:10.244Z,90.4
2019-02-03T13:59:10.437Z,91
2019-02-03T14:00:10.371Z,91.2
2019-02-03T14:01:10.889Z,90.8
2019-02-03T14:02:10.835Z,90.4
2019-02-03T14:03:10.811Z,90.1
2019-02-03T14:04:10.732Z,90.4
2019-02-03T14:05:10.701Z,90.1
2019-02-03T14:06:10.657Z,90.3
2019-02-03T14:07:11.141Z,90.4
2019-02-03T14:08:12.127Z,90.6
2019-02-03T14:09:13.091Z,90.7
2019-02-03T14:10:13.123Z,91
2019-02-03T14:11:13.121Z,90.8
2019-02-03T14:12:13.055Z,91.4